Weather History for Marfa, TX

Change the Weather History Date:

Thursday, January 23, 2014

  Actual Average Record
Temperature  
Mean Temperature 30 °F -  
Max Temperature 42 °F 58 °F 71 °F (2013)
Min Temperature 19 °F 27 °F 19 °F (1999)
Degree Days  
Heating Degree Days 34    
Moisture  
Dew Point 14 °F    
Average Humidity 46    
Maximum Humidity 59    
Minimum Humidity 33    
Precipitation  
Precipitation 0.00 in - - ()
Sea Level Pressure  
Sea Level Pressure 30.26 in    
Wind  
Wind Speed 13 mph (NNE)    
Max Wind Speed 25 mph    
Max Gust Speed 31 mph    
Visibility 10 miles    
Events      
Averages and records for this station are not official NWS values.
T = Trace of Precipitation, MM = Missing Value Source: NWS Daily Summary

Daily Weather History Graph

Daily Weather History Graph

Search for Another Location

Airport:

Trip Planner

Search our weather history database for the weather conditions in past years. The results will help you decide how hot, cold, wet, or windy it might be!

Date:

Astronomy

Jan. 23, 2014 Rise Set
Actual Time 7:51 AM CST 6:24 PM CST
Civil Twilight 7:25 AM CST 6:50 PM CST
Nautical Twilight 6:56 AM CST 7:19 PM CST
Astronomical Twilight 6:27 AM CST 7:48 PM CST
Moon 12:28 AM CST (1/23) 12:00 PM CST (1/23)
Length of Visible Light 11h 24m
Length of Day
10h 33m
Waning Gibbous, 55% of the Moon is Illuminated
Jan 23
Waning Gibbous
Jan 23
Last Quarter
Jan 30
New
Feb 6
First Quarter
Feb 14
Full

Hourly Weather History & Observations

Time (CST) Temp. Windchill Dew Point Humidity Pressure Visibility Wind Dir Wind Speed Gust Speed Precip Events Conditions
12:15 AM 42.8 °F 40.1 °F 15.8 °F 34% 30.03 in 10.0 mi NNW 4.6 mph - N/A   Partly Cloudy
12:35 AM 39.2 °F 33.6 °F 15.8 °F 39% 30.04 in 10.0 mi North 8.1 mph - N/A   Partly Cloudy
12:55 AM 41.0 °F 35.2 °F 15.8 °F 36% 30.03 in 10.0 mi North 9.2 mph - N/A   Partly Cloudy
1:15 AM 41.0 °F 36.4 °F 15.8 °F 36% 30.03 in 10.0 mi North 6.9 mph - N/A   Clear
1:35 AM 41.0 °F 35.8 °F 15.8 °F 36% 30.03 in 10.0 mi North 8.1 mph - N/A   Clear
1:55 AM 41.0 °F 35.2 °F 15.8 °F 36% 30.04 in 10.0 mi North 9.2 mph - N/A   Clear
2:15 AM 42.8 °F 38.6 °F 15.8 °F 34% 30.04 in 10.0 mi North 6.9 mph - N/A   Clear
2:35 AM 39.2 °F 35.0 °F 14.0 °F 36% 30.04 in 10.0 mi North 5.8 mph - N/A   Clear
2:55 AM 39.2 °F 35.0 °F 14.0 °F 36% 30.04 in 10.0 mi NE 5.8 mph - N/A   Clear
3:15 AM 39.2 °F 34.2 °F 15.8 °F 39% 30.05 in 10.0 mi NW 6.9 mph - N/A   Scattered Clouds
3:35 AM 39.2 °F 34.2 °F 15.8 °F 39% 30.04 in 10.0 mi NNE 6.9 mph - N/A   Mostly Cloudy
3:55 AM 39.2 °F 32.5 °F 14.0 °F 36% 30.04 in 10.0 mi NE 10.4 mph - N/A   Mostly Cloudy
4:15 AM 39.2 °F 31.2 °F 14.0 °F 36% 30.05 in 10.0 mi NE 13.8 mph - N/A   Mostly Cloudy
4:35 AM 39.2 °F 32.0 °F 14.0 °F 36% 30.06 in 10.0 mi NE 11.5 mph 16.1 mph N/A   Overcast
4:55 AM 39.2 °F 33.6 °F 15.8 °F 39% 30.06 in 10.0 mi NE 8.1 mph - N/A   Overcast
5:15 AM 39.2 °F 32.0 °F 14.0 °F 36% 30.06 in 10.0 mi NE 11.5 mph - N/A   Mostly Cloudy
5:35 AM 37.4 °F 31.4 °F 15.8 °F 41% 30.07 in 10.0 mi NE 8.1 mph - N/A   Mostly Cloudy
5:55 AM 39.2 °F 32.5 °F 15.8 °F 39% 30.08 in 10.0 mi NE 10.4 mph - N/A   Overcast
6:15 AM 37.4 °F 28.5 °F 15.8 °F 41% 30.09 in 10.0 mi NE 15.0 mph - N/A   Overcast
6:35 AM 37.4 °F 28.5 °F 15.8 °F 41% 30.10 in 10.0 mi NE 15.0 mph 19.6 mph N/A   Overcast
6:55 AM 37.4 °F 27.8 °F 15.8 °F 41% 30.10 in 10.0 mi NE 17.3 mph 23.0 mph N/A   Overcast
7:15 AM 35.6 °F 25.9 °F 15.8 °F 44% 30.12 in 10.0 mi NE 16.1 mph - N/A   Overcast
7:35 AM 35.6 °F 28.0 °F 17.6 °F 48% 30.14 in 10.0 mi NE 10.4 mph - N/A   Overcast
7:55 AM 35.6 °F 26.6 °F 17.6 °F 48% 30.16 in 10.0 mi NE 13.8 mph - N/A   Overcast
8:15 AM 35.6 °F 28.0 °F 17.6 °F 48% 30.17 in 10.0 mi NE 10.4 mph 18.4 mph N/A   Mostly Cloudy
8:35 AM 33.8 °F 23.5 °F 17.6 °F 52% 30.18 in 10.0 mi NNE 16.1 mph - N/A   Scattered Clouds
8:55 AM 33.8 °F 23.5 °F 17.6 °F 52% 30.20 in 10.0 mi NNE 16.1 mph 19.6 mph N/A   Partly Cloudy
9:15 AM 33.8 °F 22.8 °F 17.6 °F 52% 30.21 in 10.0 mi NNE 18.4 mph - N/A   Clear
9:35 AM 33.8 °F 22.8 °F 17.6 °F 52% 30.22 in 10.0 mi NNE 18.4 mph - N/A   Clear
9:55 AM 33.8 °F 22.2 °F 19.4 °F 56% 30.23 in 10.0 mi NNE 20.7 mph 25.3 mph N/A   Clear
10:15 AM 33.8 °F 22.8 °F 19.4 °F 56% 30.25 in 10.0 mi NNE 18.4 mph 24.2 mph N/A   Mostly Cloudy
10:35 AM 35.6 °F 25.2 °F 17.6 °F 48% 30.26 in 10.0 mi NNE 18.4 mph - N/A   Mostly Cloudy
10:55 AM 35.6 °F 24.0 °F 17.6 °F 48% 30.27 in 10.0 mi NNE 23.0 mph 27.6 mph N/A   Mostly Cloudy
11:15 AM 33.8 °F 21.9 °F 17.6 °F 52% 30.28 in 10.0 mi NNE 21.9 mph - N/A   Overcast
11:35 AM 33.8 °F 21.6 °F 17.6 °F 52% 30.28 in 10.0 mi NNE 23.0 mph - N/A   Mostly Cloudy
11:55 AM 33.8 °F 21.3 °F 17.6 °F 52% 30.28 in 10.0 mi NNE 24.2 mph 27.6 mph N/A   Mostly Cloudy
12:15 PM 35.6 °F 24.5 °F 17.6 °F 48% 30.29 in 10.0 mi NNE 20.7 mph 27.6 mph N/A   Mostly Cloudy
12:35 PM 35.6 °F 24.0 °F 19.4 °F 52% 30.29 in 10.0 mi NNE 23.0 mph - N/A   Overcast
12:55 PM 35.6 °F 23.7 °F 17.6 °F 48% 30.29 in 10.0 mi NNE 24.2 mph - N/A   Mostly Cloudy
1:15 PM 35.6 °F 24.0 °F 17.6 °F 48% 30.30 in 10.0 mi NNE 23.0 mph - N/A   Partly Cloudy
1:35 PM 35.6 °F 24.5 °F 17.6 °F 48% 30.30 in 10.0 mi NNE 20.7 mph 29.9 mph N/A   Scattered Clouds
1:55 PM 35.6 °F 24.0 °F 17.6 °F 48% 30.29 in 10.0 mi NNE 23.0 mph 27.6 mph N/A   Mostly Cloudy
2:15 PM 35.6 °F 23.4 °F 17.6 °F 48% 30.29 in 10.0 mi NNE 25.3 mph 28.8 mph N/A   Overcast
2:35 PM 35.6 °F 24.0 °F 15.8 °F 44% 30.28 in 10.0 mi NNE 23.0 mph 31.1 mph N/A   Overcast
2:55 PM 35.6 °F 24.2 °F 15.8 °F 44% 30.30 in 10.0 mi NNE 21.9 mph 26.5 mph N/A   Partly Cloudy
3:15 PM 33.8 °F 21.3 °F 15.8 °F 48% 30.31 in 10.0 mi NNE 24.2 mph 27.6 mph N/A   Clear
3:35 PM 33.8 °F 22.8 °F 15.8 °F 48% 30.31 in 10.0 mi NNE 18.4 mph 26.5 mph N/A   Partly Cloudy
3:55 PM 33.8 °F 22.2 °F 14.0 °F 44% 30.32 in 10.0 mi NNE 20.7 mph - N/A   Clear
4:15 PM 33.8 °F 22.5 °F 14.0 °F 44% 30.34 in 10.0 mi NE 19.6 mph 25.3 mph N/A   Clear
4:35 PM 33.8 °F 22.2 °F 14.0 °F 44% 30.34 in 10.0 mi NE 20.7 mph 26.5 mph N/A   Clear
4:55 PM 32.0 °F 20.8 °F 14.0 °F 48% 30.35 in 10.0 mi NE 17.3 mph 26.5 mph N/A   Clear
5:15 PM 32.0 °F 19.8 °F 14.0 °F 48% 30.36 in 10.0 mi NNE 20.7 mph 26.5 mph N/A   Clear
5:35 PM 30.2 °F 16.8 °F 14.0 °F 51% 30.37 in 10.0 mi NNE 23.0 mph 27.6 mph N/A   Clear
5:55 PM 28.4 °F 15.1 °F 14.0 °F 55% 30.38 in 10.0 mi NNE 20.7 mph 26.5 mph N/A   Clear
6:15 PM 28.4 °F 15.4 °F 14.0 °F 55% 30.39 in 10.0 mi NNE 19.6 mph 26.5 mph N/A   Clear
6:35 PM 26.6 °F 14.3 °F 14.0 °F 59% 30.40 in 10.0 mi NNE 16.1 mph 26.5 mph N/A   Clear
6:55 PM 26.6 °F 13.8 °F 14.0 °F 59% 30.41 in 10.0 mi NNE 17.3 mph - N/A   Clear
7:15 PM 26.6 °F 13.4 °F 12.2 °F 55% 30.42 in 10.0 mi NNE 18.4 mph 26.5 mph N/A   Clear
7:35 PM 26.6 °F 12.4 °F 12.2 °F 55% 30.43 in 10.0 mi NE 21.9 mph - N/A   Clear
7:55 PM 24.8 °F 10.7 °F 10.4 °F 54% 30.44 in 10.0 mi NNE 19.6 mph 26.5 mph N/A   Clear
8:15 PM 24.8 °F 11.1 °F 10.4 °F 54% 30.45 in 10.0 mi NE 18.4 mph 24.2 mph N/A   Clear
8:35 PM 23.0 °F 7.2 °F 8.6 °F 54% 30.46 in 10.0 mi NNE 23.0 mph 26.5 mph N/A   Clear
8:55 PM 23.0 °F 8.3 °F 8.6 °F 54% 30.46 in 10.0 mi NNE 19.6 mph 25.3 mph N/A   Clear
9:15 PM 23.0 °F 7.2 °F 6.8 °F 50% 30.47 in 10.0 mi NNE 23.0 mph 26.5 mph N/A   Clear
9:35 PM 23.0 °F 8.0 °F 5.0 °F 46% 30.48 in 10.0 mi NNE 20.7 mph - N/A   Clear
9:55 PM 21.2 °F 6.8 °F 5.0 °F 50% 30.49 in 10.0 mi NNE 17.3 mph 24.2 mph N/A   Clear
10:15 PM 21.2 °F 6.8 °F 3.2 °F 46% 30.51 in 10.0 mi NNE 17.3 mph 23.0 mph N/A   Clear
10:35 PM 21.2 °F 7.3 °F 3.2 °F 46% 30.51 in 10.0 mi NNE 16.1 mph 24.2 mph N/A   Clear
10:55 PM 21.2 °F 6.0 °F -0.4 °F 39% 30.51 in 10.0 mi NNE 19.6 mph 26.5 mph N/A   Clear
11:15 PM 21.2 °F 5.2 °F -0.4 °F 39% 30.51 in 10.0 mi NNE 21.9 mph - N/A   Clear
11:35 PM 19.4 °F 4.1 °F -2.2 °F 39% 30.53 in 10.0 mi NNE 18.4 mph 25.3 mph N/A   Clear
11:55 PM 19.4 °F 4.1 °F -5.8 °F 33% 30.53 in 10.0 mi NNE 18.4 mph 25.3 mph N/A   Clear